Time;durP1;ratioP1;P1;durP2;ratioP2;P2;SDS_P1;SDS_P2;PMS_P1;PMS_P2;Temp;Humidity;BMP_temperature;BMP_pressure;BME280_temperature;BME280_humidity;BME280_pressure;Samples;Min_cycle;Max_cycle;Signal;HPM_P1;HPM_P2
2024/01/24 05:22:33;;;;;;;4.82;1.20;;;;;;;12.41;95.41;100909.69;5083023;28;20405;-35
2024/01/24 05:24:58;;;;;;;1.33;0.90;;;;;;;12.39;96.11;100884.97;5089137;28;20036;-35
2024/01/24 05:27:24;;;;;;;1.00;0.60;;;;;;;12.43;96.08;100891.63;5088889;28;20074;-35
2024/01/24 05:29:49;;;;;;;1.23;0.73;;;;;;;12.44;96.81;100893.28;5076687;28;20488;-35
2024/01/24 05:32:15;;;;;;;1.33;0.80;;;;;;;12.54;96.31;100910.00;5068873;28;20063;-35
2024/01/24 05:34:40;;;;;;;1.70;0.70;;;;;;;12.60;96.59;100903.13;5068695;28;20064;-35
2024/01/24 05:37:06;;;;;;;0.82;0.57;;;;;;;12.66;96.50;100911.31;5068598;28;20052;-36
2024/01/24 05:39:31;;;;;;;1.90;0.50;;;;;;;12.67;96.91;100891.59;5068926;28;20427;-36
2024/01/24 05:41:56;;;;;;;0.50;0.50;;;;;;;12.69;96.93;100892.25;5068589;28;20039;-36
2024/01/24 05:44:22;;;;;;;1.00;0.57;;;;;;;12.62;97.52;100883.25;5068662;28;20560;-36
2024/01/24 05:46:47;;;;;;;1.23;0.40;;;;;;;12.64;97.70;100881.22;5068200;28;20500;-35
2024/01/24 05:49:13;;;;;;;1.38;0.60;;;;;;;12.70;97.70;100871.69;5068455;28;20124;-36
2024/01/24 05:51:38;;;;;;;0.20;0.20;;;;;;;12.67;97.85;100867.53;5068338;28;20027;-36
2024/01/24 05:54:04;;;;;;;0.55;0.40;;;;;;;12.81;97.57;100875.84;5068486;28;20037;-36
2024/01/24 05:56:30;;;;;;;2.30;0.90;;;;;;;12.81;97.88;100875.84;5068212;28;20035;-36
2024/01/24 05:58:56;;;;;;;1.50;0.60;;;;;;;12.77;98.59;100884.19;5068053;28;20558;-36
2024/01/24 06:01:21;;;;;;;0.55;0.38;;;;;;;12.81;98.43;100889.22;5068330;28;20056;-36
2024/01/24 06:03:47;;;;;;;0.40;0.30;;;;;;;12.91;98.03;100914.75;5068117;28;20124;-36
2024/01/24 06:06:12;;;;;;;0.38;0.30;;;;;;;12.86;98.80;100887.69;5068155;28;20090;-36
2024/01/24 06:08:38;;;;;;;0.73;0.38;;;;;;;12.87;98.80;100902.72;5067912;28;20063;-34
2024/01/24 06:11:04;;;;;;;0.85;0.40;;;;;;;12.80;100.00;100896.41;5068603;28;20036;-36
2024/01/24 06:13:30;;;;;;;1.05;0.60;;;;;;;12.83;100.00;100914.75;5073119;28;20041;-36
2024/01/24 06:15:56;;;;;;;0.50;0.30;;;;;;;12.75;100.00;100893.41;5070055;28;20041;-36
2024/01/24 06:18:21;;;;;;;1.13;0.30;;;;;;;12.59;100.00;100912.16;5067930;28;20029;-36
2024/01/24 06:20:47;;;;;;;1.20;0.43;;;;;;;12.22;100.00;100935.72;5067594;28;20485;-35
2024/01/24 06:23:13;;;;;;;0.45;0.40;;;;;;;12.02;100.00;100926.38;5067829;28;20439;-36
2024/01/24 06:25:38;;;;;;;0.55;0.52;;;;;;;11.87;100.00;100917.38;5067689;28;20044;-35
2024/01/24 06:28:04;;;;;;;0.68;0.40;;;;;;;11.75;100.00;100940.00;5067488;28;20045;-35
2024/01/24 06:30:30;;;;;;;0.63;0.50;;;;;;;11.53;100.00;100930.75;5067617;28;20036;-34
2024/01/24 06:32:55;;;;;;;1.52;0.70;;;;;;;11.38;100.00;100938.56;5059813;28;20045;-36
2024/01/24 06:35:21;;;;;;;1.60;1.00;;;;;;;11.42;100.00;100931.91;5054276;28;20412;-36
2024/01/24 06:37:48;;;;;;;0.70;0.50;;;;;;;11.33;100.00;100920.38;5054074;28;20029;-36
2024/01/24 06:40:14;;;;;;;3.85;0.73;;;;;;;11.26;100.00;100955.84;5054188;28;20028;-34
2024/01/24 06:42:40;;;;;;;0.88;0.50;;;;;;;11.15;100.00;100917.00;5054153;28;20037;-34
2024/01/24 06:45:07;;;;;;;1.58;0.50;;;;;;;11.18;100.00;100945.16;5054056;28;20116;-34
2024/01/24 06:47:34;;;;;;;;;;;;;;;11.10;100.00;100949.47;5054381;28;20044;-34
2024/01/24 06:49:59;;;;;;;1.20;0.43;;;;;;;11.19;100.00;100941.50;5054020;28;19913;-34
2024/01/24 06:52:25;;;;;;;1.17;0.50;;;;;;;-144.44;100.00;63085.34;5054068;28;20107;-36
2024/01/24 06:55:50;;;;;;;2.40;0.50;;;;;;;-144.44;100.00;63085.34;5054045;28;20488;-36
2024/01/24 06:59:14;;;;;;;1.00;0.70;;;;;;;-144.44;100.00;63085.34;5053740;28;20041;-36
2024/01/24 07:02:38;;;;;;;1.08;0.60;;;;;;;-144.44;100.00;63085.34;5053766;28;20053;-35
2024/01/24 07:06:05;;;;;;;1.35;0.38;;;;;;;-144.44;100.00;63085.34;5053872;28;20033;-34
2024/01/24 07:09:29;;;;;;;1.77;0.60;;;;;;;-144.44;100.00;63085.34;5052065;28;20049;-33
2024/01/24 07:12:52;;;;;;;0.85;0.63;;;;;;;-144.44;100.00;63085.34;5053598;28;20112;-34
2024/01/24 07:16:16;;;;;;;0.35;0.35;;;;;;;-144.44;100.00;63085.34;5053120;28;20396;-33
2024/01/24 07:19:40;;;;;;;0.60;0.30;;;;;;;-144.44;100.00;63085.34;5052514;28;20086;-35
2024/01/24 07:23:04;;;;;;;1.15;0.40;;;;;;;-144.44;100.00;63085.34;5052326;28;20071;-34
2024/01/24 07:26:28;;;;;;;0.82;0.60;;;;;;;-144.44;100.00;63085.34;5052636;28;20060;-35
2024/01/24 07:29:52;;;;;;;1.00;0.47;;;;;;;-144.44;100.00;63085.34;5045529;28;20507;-35
2024/01/24 07:33:16;;;;;;;0.47;0.40;;;;;;;-144.44;100.00;63085.34;5053425;28;20029;-35
2024/01/24 07:36:40;;;;;;;1.38;0.60;;;;;;;-144.44;100.00;63085.34;5051870;28;20037;-34
2024/01/24 07:40:04;;;;;;;0.55;0.40;;;;;;;-144.44;100.00;63085.34;5052926;28;20493;-35
2024/01/24 07:43:29;;;;;;;1.33;0.43;;;;;;;-144.44;100.00;63085.34;5053122;28;20033;-35
2024/01/24 07:46:53;;;;;;;0.52;0.50;;;;;;;-144.44;100.00;63085.34;5052304;28;20033;-34
2024/01/24 07:50:17;;;;;;;0.32;0.30;;;;;;;-144.44;100.00;63085.34;5052975;28;20078;-35
2024/01/24 07:53:43;;;;;;;0.50;0.50;;;;;;;-144.44;100.00;63085.34;5053041;28;20037;-35
2024/01/24 07:57:07;;;;;;;0.70;0.30;;;;;;;-144.44;100.00;63085.34;5052894;28;20041;-35
2024/01/24 08:00:32;;;;;;;0.30;0.30;;;;;;;-144.44;100.00;63085.34;5052702;28;20518;-35
2024/01/24 08:03:56;;;;;;;0.60;0.32;;;;;;;-144.44;100.00;63085.34;5052668;28;20076;-35
2024/01/24 08:07:20;;;;;;;0.60;0.40;;;;;;;-144.44;100.00;63085.34;5052665;28;20041;-34
2024/01/24 08:10:44;;;;;;;0.22;0.22;;;;;;;-144.44;100.00;63085.34;5052322;28;20033;-35
2024/01/24 08:14:08;;;;;;;0.50;0.47;;;;;;;-144.44;100.00;63085.34;5052598;28;20431;-35
2024/01/24 08:17:36;;;;;;;0.68;0.40;;;;;;;-144.44;100.00;63085.34;5052741;28;20068;-34
2024/01/24 08:21:01;;;;;;;1.25;0.40;;;;;;;-144.44;100.00;63085.34;5053012;28;20040;-35
2024/01/24 08:24:25;;;;;;;0.60;0.30;;;;;;;-144.44;100.00;63085.34;5052710;28;20033;-34
2024/01/24 08:27:50;;;;;;;0.20;0.20;;;;;;;-144.44;100.00;63085.34;5052130;28;20025;-34
2024/01/24 08:31:14;;;;;;;0.35;0.30;;;;;;;-144.44;100.00;63085.34;5052188;28;20090;-35
2024/01/24 08:34:38;;;;;;;0.63;0.40;;;;;;;-144.44;100.00;63085.34;5052147;28;20069;-34
2024/01/24 08:38:03;;;;;;;0.35;0.30;;;;;;;-144.44;100.00;63085.34;5053484;28;20094;-35
2024/01/24 08:41:28;;;;;;;1.48;0.40;;;;;;;-144.44;100.00;63085.34;5054316;28;20408;-34
2024/01/24 08:44:52;;;;;;;0.40;0.30;;;;;;;-144.44;100.00;63085.34;5054641;28;20098;-34
2024/01/24 08:48:17;;;;;;;0.35;0.30;;;;;;;-144.44;100.00;63085.34;5052097;28;20097;-37
2024/01/24 08:50:43;;;;;;;1.13;0.30;;;;;;;-144.44;100.00;63085.34;5051874;28;20048;-41
2024/01/24 09:14:18;;;;;;;0.47;0.32;;;;;;;11.85;92.08;101108.94;5089677;28;20329;-35
2024/01/24 09:16:43;;;;;;;0.52;0.50;;;;;;;11.74;94.73;101125.50;5089518;28;20106;-34
2024/01/24 09:19:09;;;;;;;0.43;0.20;;;;;;;11.82;95.41;101106.31;5083473;28;20496;-34
2024/01/24 09:21:34;;;;;;;0.90;0.50;;;;;;;12.05;100.00;101110.97;5070565;28;20048;-35
2024/01/24 09:23:59;;;;;;;0.45;0.40;;;;;;;11.93;100.00;101114.13;5069188;28;20071;-34
2024/01/24 09:26:25;;;;;;;1.15;0.52;;;;;;;12.05;99.85;101091.41;5069543;28;20481;-35
2024/01/24 09:28:51;;;;;;;0.68;0.47;;;;;;;11.99;96.26;101110.13;5062054;28;20064;-34
2024/01/24 09:31:17;;;;;;;0.50;0.50;;;;;;;11.95;100.00;101115.19;5069532;28;20619;-34
2024/01/24 09:33:42;;;;;;;0.38;0.38;;;;;;;11.91;100.00;101125.00;5070526;28;20036;-34
2024/01/24 09:36:08;;;;;;;0.35;0.20;;;;;;;11.99;100.00;101084.97;5069317;28;20078;-34
2024/01/24 09:38:33;;;;;;;0.38;0.30;;;;;;;12.04;100.00;101106.66;5069202;28;20037;-34
2024/01/24 09:41:00;;;;;;;0.32;0.30;;;;;;;12.02;100.00;101084.00;5069520;28;20091;-34
2024/01/24 09:43:29;;;;;;;0.80;0.40;;;;;;;11.94;100.00;101101.66;5070464;28;20408;-33
2024/01/24 09:45:57;;;;;;;2.38;0.60;;;;;;;12.00;100.00;101110.91;5069223;28;20045;-34
2024/01/24 09:48:22;;;;;;;;;;;;;;;11.93;100.00;101106.50;5069566;28;20044;-34
2024/01/24 09:50:48;;;;;;;1.00;0.60;;;;;;;11.97;100.00;101126.63;5069293;28;19951;-34
2024/01/24 09:53:15;;;;;;;1.77;0.40;;;;;;;12.07;100.00;101124.47;5069061;28;20055;-34
2024/01/24 09:55:42;;;;;;;0.73;0.40;;;;;;;12.52;100.00;101127.78;5070118;28;20035;-34
2024/01/24 09:58:07;;;;;;;0.55;0.40;;;;;;;12.30;100.00;101154.28;5068844;28;20041;-34
2024/01/24 10:00:33;;;;;;;0.22;0.22;;;;;;;12.33;100.00;101125.31;5069019;28;20040;-34
2024/01/24 10:02:59;;;;;;;0.40;0.32;;;;;;;12.41;100.00;101136.84;5067939;28;20058;-35
2024/01/24 10:05:25;;;;;;;0.57;0.50;;;;;;;12.75;100.00;101135.19;5069681;28;20032;-34
2024/01/24 10:07:51;;;;;;;0.75;0.50;;;;;;;12.89;100.00;101139.13;5068568;28;20029;-35
2024/01/24 10:10:16;;;;;;;1.15;0.40;;;;;;;12.78;100.00;101142.59;5068971;28;20377;-35
2024/01/24 10:12:42;;;;;;;1.38;0.50;;;;;;;12.86;100.00;101139.38;5068601;28;20051;-35
2024/01/24 10:15:10;;;;;;;1.17;0.32;;;;;;;12.66;100.00;101170.97;5068212;28;20036;-34
2024/01/24 10:17:39;;;;;;;0.43;0.40;;;;;;;12.36;100.00;101196.31;5069499;28;20056;-35
2024/01/24 10:20:07;;;;;;;0.52;0.35;;;;;;;11.84;100.00;101230.38;5064172;28;20074;-34
2024/01/24 10:22:33;;;;;;;0.77;0.45;;;;;;;14.53;100.00;101253.31;5060262;28;20044;-52
2024/01/24 10:24:58;;;;;;;0.68;0.45;;;;;;;11.34;100.00;101249.09;5050565;28;20044;-40
2024/01/24 10:27:25;;;;;;;1.70;0.43;;;;;;;11.55;100.00;101253.53;5045663;28;20037;-39
2024/01/24 10:29:51;;;;;;;0.50;0.43;;;;;;;11.79;100.00;101244.28;5049027;28;20040;-37
2024/01/24 10:32:16;;;;;;;0.73;0.60;;;;;;;12.33;100.00;101262.41;5049109;28;20123;-38
2024/01/24 10:34:42;;;;;;;0.40;0.40;;;;;;;-147.11;100.00;72537.44;5053349;28;20041;-39
2024/01/24 10:38:09;;;;;;;0.75;0.40;;;;;;;-147.11;100.00;72537.44;5048596;28;20037;-40
2024/01/24 10:41:38;;;;;;;0.57;0.52;;;;;;;-147.11;100.00;72537.44;5047374;28;20044;-41
2024/01/24 10:45:05;;;;;;;0.63;0.50;;;;;;;-147.11;100.00;72537.44;5049624;28;20476;-40
2024/01/24 10:48:30;;;;;;;0.77;0.30;;;;;;;-147.11;100.00;72537.44;5048015;28;20084;-41
2024/01/24 10:51:55;;;;;;;0.68;0.50;;;;;;;-147.11;100.00;72537.44;5049743;28;20029;-40
2024/01/24 10:55:20;;;;;;;0.32;0.32;;;;;;;-147.11;100.00;72537.44;5047060;28;20436;-42
2024/01/24 10:58:45;;;;;;;1.35;0.70;;;;;;;-147.11;100.00;72537.44;5049797;28;20044;-42
2024/01/24 11:02:10;;;;;;;0.50;0.40;;;;;;;-147.11;100.00;72537.44;5049396;28;20040;-41
2024/01/24 11:05:40;;;;;;;0.63;0.43;;;;;;;-147.11;100.00;72537.44;5047261;28;20037;-40
2024/01/24 11:09:23;;;;;;;1.10;0.52;;;;;;;-147.11;100.00;72537.44;5049758;28;20040;-42
2024/01/24 11:12:50;;;;;;;0.30;0.25;;;;;;;-147.11;100.00;72537.44;5049979;28;20037;-39
2024/01/24 11:16:25;;;;;;;0.20;0.20;;;;;;;-147.11;100.00;72537.44;5048650;28;20033;-40
2024/01/24 11:19:49;;;;;;;0.47;0.30;;;;;;;-147.11;100.00;72537.44;5054401;28;20054;-41
2024/01/24 11:23:38;;;;;;;0.38;0.30;;;;;;;-147.11;100.00;72537.44;5049384;28;20623;-41
2024/01/24 11:27:03;;;;;;;0.15;0.15;;;;;;;-147.11;100.00;72537.44;5047662;28;20029;-42
2024/01/24 11:30:34;;;;;;;0.20;0.20;;;;;;;-147.11;100.00;72537.44;5055847;28;20037;-40
2024/01/24 11:34:11;;;;;;;0.50;0.38;;;;;;;-147.11;100.00;72537.44;5048646;28;20044;-42
2024/01/24 11:37:45;;;;;;;0.60;0.32;;;;;;;-147.11;100.00;72537.44;5050305;28;20115;-43
2024/01/24 11:41:20;;;;;;;0.60;0.40;;;;;;;-147.11;100.00;72537.44;5048263;28;20068;-42
2024/01/24 11:44:47;;;;;;;0.17;0.15;;;;;;;-147.11;100.00;72537.44;5053105;28;20043;-42
2024/01/24 11:48:11;;;;;;;0.75;0.40;;;;;;;-147.11;100.00;72537.44;5054177;28;20040;-41
2024/01/24 11:51:35;;;;;;;0.30;0.30;;;;;;;-147.11;100.00;72537.44;5051738;28;20128;-40
2024/01/24 11:54:59;;;;;;;0.98;0.50;;;;;;;-147.11;100.00;72537.44;5048350;28;20041;-40
2024/01/24 11:58:28;;;;;;;0.40;0.30;;;;;;;-147.11;100.00;72537.44;5047307;28;20029;-41
2024/01/24 12:01:53;;;;;;;0.68;0.40;;;;;;;-147.11;100.00;72537.44;5044619;28;20164;-42
2024/01/24 12:05:17;;;;;;;2.22;0.30;;;;;;;-147.11;100.00;72537.44;5045702;28;20484;-42
2024/01/24 12:08:43;;;;;;;2.28;0.47;;;;;;;-147.11;100.00;72537.44;5043661;28;20501;-42
2024/01/24 12:12:08;;;;;;;0.73;0.50;;;;;;;-147.11;100.00;72537.44;5046611;28;20040;-39
2024/01/24 12:15:33;;;;;;;1.75;0.68;;;;;;;-147.11;100.00;72537.44;5043549;28;20033;-41
2024/01/24 12:19:03;;;;;;;0.43;0.30;;;;;;;-147.11;100.00;72537.44;5046243;28;20113;-40
2024/01/24 12:22:27;;;;;;;2.72;0.68;;;;;;;-147.11;100.00;72537.44;5044008;28;20045;-40
2024/01/24 12:25:52;;;;;;;1.52;0.40;;;;;;;-147.11;100.00;72537.44;5045815;28;20036;-42
2024/01/24 12:28:22;;;;;;;1.38;0.47;;;;;;;-147.11;100.00;72537.44;5044848;28;20094;-44
2024/01/24 12:31:17;;;;;;;1.05;0.40;;;;;;;14.00;100.00;101143.34;5113107;27;20331;-35
2024/01/24 12:33:44;;;;;;;0.80;0.47;;;;;;;13.74;100.00;101143.59;5112435;28;20066;-35
2024/01/24 12:36:10;;;;;;;;;;;;;;;13.57;100.00;101148.19;5112715;27;20064;-35
2024/01/24 12:38:36;;;;;;;2.63;0.52;;;;;;;13.57;100.00;101148.19;5141531;27;19963;-36
2024/01/24 12:41:01;;;;;;;2.75;0.88;;;;;;;-144.44;100.00;63085.34;5117373;28;20036;-35
2024/01/24 12:43:27;;;;;;;1.73;0.50;;;;;;;13.69;100.00;101146.81;5117565;28;20036;-35
2024/01/24 12:45:53;;;;;;;0.88;0.50;;;;;;;-144.44;100.00;63085.34;5120007;28;20039;-35
2024/01/24 12:48:18;;;;;;;2.38;0.75;;;;;;;13.52;100.00;101167.44;5120539;27;20039;-35
2024/01/24 12:50:44;;;;;;;1.58;0.63;;;;;;;13.72;100.00;101175.09;5119056;27;20039;-35
2024/01/24 12:53:09;;;;;;;1.00;0.52;;;;;;;-144.44;100.00;63085.34;5117312;28;20038;-36
2024/01/24 12:55:35;;;;;;;3.70;0.70;;;;;;;-144.44;100.00;63085.34;5117069;28;20051;-34
2024/01/24 12:58:00;;;;;;;0.60;0.50;;;;;;;-144.44;100.00;63085.34;5109976;28;20050;-35
2024/01/24 13:00:26;;;;;;;0.65;0.38;;;;;;;-144.44;100.00;63085.34;5108071;28;20036;-36
2024/01/24 13:02:52;;;;;;;2.58;1.02;;;;;;;-144.44;100.00;63085.34;5119612;28;20061;-36
2024/01/24 13:05:18;;;;;;;1.35;0.80;;;;;;;-144.44;100.00;63085.34;5114309;28;20040;-36
2024/01/24 13:07:44;;;;;;;3.40;0.60;;;;;;;-144.44;100.00;63085.34;5116301;28;20032;-36
2024/01/24 13:10:09;;;;;;;0.68;0.40;;;;;;;-144.44;100.00;63085.34;5108912;28;20484;-36
2024/01/24 13:12:35;;;;;;;1.83;0.77;;;;;;;-144.44;100.00;63085.34;5107896;28;20074;-36
2024/01/24 13:15:04;;;;;;;0.77;0.50;;;;;;;-144.44;100.00;63085.34;5109077;28;20038;-36
2024/01/24 13:17:29;;;;;;;2.25;0.63;;;;;;;-144.44;100.00;63085.34;5108873;28;20410;-35
2024/01/24 13:19:55;;;;;;;1.95;0.70;;;;;;;-144.44;100.00;63085.34;5109366;28;20028;-36
2024/01/24 13:22:20;;;;;;;3.03;0.93;;;;;;;-144.44;100.00;63085.34;5112549;28;20089;-36
2024/01/24 13:24:46;;;;;;;2.05;0.82;;;;;;;-144.44;100.00;63085.34;5123838;28;20036;-36
2024/01/24 13:27:12;;;;;;;2.63;0.70;;;;;;;-144.44;100.00;63085.34;5108814;28;20043;-36
2024/01/24 13:29:37;;;;;;;1.63;0.80;;;;;;;-144.44;100.00;63085.34;5108524;28;20043;-36
2024/01/24 13:32:03;;;;;;;1.35;0.55;;;;;;;-144.44;100.00;63085.34;5105257;28;20169;-35
2024/01/24 13:34:28;;;;;;;2.53;0.90;;;;;;;-144.44;100.00;63085.34;5113179;28;20051;-36
2024/01/24 13:36:54;;;;;;;0.60;0.40;;;;;;;-144.44;100.00;63085.34;5108111;28;20164;-36
2024/01/24 13:39:19;;;;;;;1.23;0.57;;;;;;;-144.44;100.00;63085.34;5108474;28;20055;-34
2024/01/24 13:41:45;;;;;;;3.83;1.00;;;;;;;-144.44;100.00;63085.34;5099797;28;20043;-37
2024/01/24 13:44:11;;;;;;;2.03;0.77;;;;;;;-144.44;100.00;63085.34;5094785;28;20047;-35
2024/01/24 13:46:37;;;;;;;1.48;0.75;;;;;;;-144.44;100.00;63085.34;5094400;28;20039;-35
2024/01/24 13:49:03;;;;;;;1.95;0.52;;;;;;;-144.44;100.00;63085.34;5094666;28;20088;-35
2024/01/24 13:51:31;;;;;;;0.80;0.68;;;;;;;-144.44;100.00;63085.34;5094923;28;20047;-37
2024/01/24 13:53:57;;;;;;;0.68;0.60;;;;;;;-144.44;100.00;63085.34;5094770;28;20043;-36
2024/01/24 13:56:23;;;;;;;1.35;0.50;;;;;;;-144.44;100.00;63085.34;5094819;28;20487;-34
2024/01/24 13:58:48;;;;;;;2.47;0.73;;;;;;;-144.44;100.00;63085.34;5094320;28;20043;-36
2024/01/24 14:01:14;;;;;;;1.55;0.80;;;;;;;-144.44;100.00;63085.34;5094577;28;20120;-36
2024/01/24 14:03:40;;;;;;;2.13;0.80;;;;;;;-144.44;100.00;63085.34;5094490;28;20039;-36
2024/01/24 14:06:05;;;;;;;1.05;0.65;;;;;;;-144.44;100.00;63085.34;5094336;28;20040;-36
2024/01/24 14:08:31;;;;;;;2.78;0.98;;;;;;;-144.44;100.00;63085.34;5094165;28;20040;-36
2024/01/24 14:10:56;;;;;;;3.38;0.80;;;;;;;-144.44;100.00;63085.34;5094200;28;20032;-35
2024/01/24 14:13:22;;;;;;;3.15;1.00;;;;;;;-144.44;100.00;63085.34;5094318;28;20050;-36
2024/01/24 14:15:47;;;;;;;1.38;0.80;;;;;;;-144.44;100.00;63085.34;5094126;28;20036;-36
2024/01/24 14:18:13;;;;;;;1.63;0.68;;;;;;;-144.44;100.00;63085.34;5094075;28;20051;-36
2024/01/24 14:20:38;;;;;;;2.60;0.90;;;;;;;-144.44;100.00;63085.34;5093912;28;20064;-36
2024/01/24 14:23:06;;;;;;;1.70;0.77;;;;;;;-144.44;100.00;63085.34;5094202;28;20097;-36
2024/01/24 14:25:31;;;;;;;2.30;0.80;;;;;;;-144.44;100.00;63085.34;5094008;28;20184;-36
2024/01/24 14:27:57;;;;;;;2.00;0.90;;;;;;;-144.44;100.00;63085.34;5083031;28;20023;-36
2024/01/24 14:30:23;;;;;;;3.08;1.05;;;;;;;-144.44;100.00;63085.34;5085594;28;20032;-34
2024/01/24 14:32:48;;;;;;;3.60;1.10;;;;;;;-144.44;100.00;63085.34;5085243;28;20065;-37
2024/01/24 14:35:16;;;;;;;4.30;1.02;;;;;;;-144.44;100.00;63085.34;5083884;28;20119;-36
2024/01/24 14:37:41;;;;;;;1.90;0.95;;;;;;;-144.44;100.00;63085.34;5084513;28;20032;-35
2024/01/24 14:40:07;;;;;;;3.08;1.20;;;;;;;-144.44;100.00;63085.34;5083604;28;20046;-35
2024/01/24 14:42:32;;;;;;;2.60;0.82;;;;;;;-144.44;100.00;63085.34;5085353;28;20040;-35
2024/01/24 14:44:58;;;;;;;2.80;0.93;;;;;;;-144.44;100.00;63085.34;5084199;28;20062;-35
2024/01/24 14:47:24;;;;;;;2.80;0.77;;;;;;;-144.44;100.00;63085.34;5085581;28;20048;-35
2024/01/24 14:49:49;;;;;;;3.03;1.10;;;;;;;-144.44;100.00;63085.34;5082846;28;20040;-35
2024/01/24 14:52:14;;;;;;;4.57;1.25;;;;;;;-144.44;100.00;63085.34;5082717;28;20044;-35
2024/01/24 14:54:40;;;;;;;1.95;0.85;;;;;;;-144.44;100.00;63085.34;5083013;28;20033;-35
2024/01/24 14:57:08;;;;;;;2.33;1.23;;;;;;;-144.44;100.00;63085.34;5081888;28;20071;-35
2024/01/24 15:22:21;;;;;;;4.68;1.30;;;;;;;13.06;76.78;101353.50;5089177;28;20394;-34
2024/01/24 15:24:51;;;;;;;7.78;1.20;;;;;;;12.79;78.52;101356.41;5075419;28;20033;-35
2024/01/24 15:27:17;;;;;;;3.60;1.00;;;;;;;-144.44;100.00;63085.34;5072904;28;20040;-34
2024/01/24 15:29:43;;;;;;;3.22;1.10;;;;;;;-144.44;100.00;63085.34;5056750;28;20045;-34
2024/01/24 15:32:10;;;;;;;3.40;1.08;;;;;;;12.63;80.52;101367.84;5049067;28;20029;-34
2024/01/24 15:34:35;;;;;;;2.03;0.98;;;;;;;-144.44;100.00;63085.34;5049217;28;20049;-34
2024/01/24 15:37:01;;;;;;;6.55;1.10;;;;;;;-144.44;100.00;63085.34;5048872;28;20111;-34
2024/01/24 15:39:26;;;;;;;2.53;1.13;;;;;;;-144.44;100.00;63085.34;5049211;28;20044;-35
2024/01/24 15:41:54;;;;;;;2.53;1.15;;;;;;;-144.44;100.00;63085.34;5049276;28;20052;-36
2024/01/24 15:44:19;;;;;;;5.35;1.17;;;;;;;-144.44;100.00;63085.34;5053282;28;20017;-35
2024/01/24 15:46:45;;;;;;;3.78;1.00;;;;;;;-144.44;100.00;63085.34;5063997;28;20504;-35
2024/01/24 15:49:10;;;;;;;4.28;1.20;;;;;;;-144.44;100.00;63085.34;5060364;28;20048;-32
2024/01/24 15:51:35;;;;;;;3.55;1.15;;;;;;;-144.44;100.00;63085.34;5048990;28;20482;-33
2024/01/24 15:54:01;;;;;;;2.20;1.08;;;;;;;-144.44;100.00;63085.34;5048865;28;20503;-35
2024/01/24 15:56:26;;;;;;;5.88;1.40;;;;;;;-144.44;100.00;63085.34;5048881;28;20048;-34
2024/01/24 15:58:52;;;;;;;4.68;1.35;;;;;;;-144.44;100.00;63085.34;5048536;28;20064;-35
2024/01/24 16:01:17;;;;;;;5.05;1.40;;;;;;;-144.44;100.00;63085.34;5048557;28;20124;-35
2024/01/24 16:03:42;;;;;;;2.80;1.00;;;;;;;-144.44;100.00;63085.34;5048455;28;20037;-32
2024/01/24 16:06:08;;;;;;;3.80;1.33;;;;;;;-144.44;100.00;63085.34;5047719;28;20036;-34
2024/01/24 16:08:33;;;;;;;6.30;1.00;;;;;;;-144.44;100.00;63085.34;5047655;28;20384;-35
2024/01/24 16:10:59;;;;;;;3.80;1.10;;;;;;;-144.44;100.00;63085.34;5048024;28;20186;-34
2024/01/24 16:13:24;;;;;;;2.03;0.93;;;;;;;-144.44;100.00;63085.34;5048299;28;20048;-35
2024/01/24 16:15:49;;;;;;;2.85;1.13;;;;;;;-144.44;100.00;63085.34;5048296;28;20033;-35
2024/01/24 16:18:15;;;;;;;2.80;1.05;;;;;;;-144.44;100.00;63085.34;5048157;28;20111;-34
2024/01/24 16:20:40;;;;;;;2.50;1.00;;;;;;;-144.44;100.00;63085.34;5047909;28;20042;-35
2024/01/24 16:23:06;;;;;;;6.80;1.38;;;;;;;-144.44;100.00;63085.34;5048472;28;20029;-35
2024/01/24 16:25:32;;;;;;;3.25;1.17;;;;;;;-144.44;100.00;63085.34;5048239;28;20132;-35
2024/01/24 16:27:57;;;;;;;2.85;1.10;;;;;;;-144.44;100.00;63085.34;5048163;28;20028;-35
2024/01/24 16:30:26;;;;;;;2.20;0.90;;;;;;;-144.44;100.00;63085.34;5048244;28;20065;-36
2024/01/24 16:32:53;;;;;;;3.25;1.05;;;;;;;-144.44;100.00;63085.34;5039478;28;20045;-34
2024/01/24 16:35:19;;;;;;;3.37;1.30;;;;;;;-144.44;100.00;63085.34;5034901;28;20040;-34
2024/01/24 16:37:44;;;;;;;3.95;1.17;;;;;;;-144.44;100.00;63085.34;5035048;28;20033;-36
2024/01/24 16:40:10;;;;;;;3.72;1.30;;;;;;;-144.44;100.00;63085.34;5034917;28;20112;-34
2024/01/24 16:42:36;;;;;;;4.00;1.13;;;;;;;-144.44;100.00;63085.34;5034726;28;20042;-33
2024/01/24 16:45:03;;;;;;;3.78;1.17;;;;;;;-144.44;100.00;63085.34;5034811;28;20048;-33
2024/01/24 16:47:29;;;;;;;2.15;1.38;;;;;;;-144.44;100.00;63085.34;5034590;28;20561;-34
2024/01/24 16:49:54;;;;;;;1.70;1.05;;;;;;;-144.44;100.00;63085.34;5034356;28;20129;-34
2024/01/24 16:52:23;;;;;;;4.50;1.42;;;;;;;-144.44;100.00;63085.34;5034876;28;20124;-35
2024/01/24 16:54:49;;;;;;;4.43;1.00;;;;;;;-144.44;100.00;63085.34;5034632;28;20045;-35
2024/01/24 16:57:15;;;;;;;2.88;1.27;;;;;;;-144.44;100.00;63085.34;5034498;28;20143;-36
2024/01/24 16:59:41;;;;;;;4.43;1.42;;;;;;;-144.44;100.00;63085.34;5033835;28;20029;-35
2024/01/24 17:02:06;;;;;;;2.35;1.00;;;;;;;-144.44;100.00;63085.34;5034393;28;20032;-35
2024/01/24 17:04:33;;;;;;;2.72;1.27;;;;;;;-144.44;100.00;63085.34;5034174;28;20489;-34
2024/01/24 17:06:58;;;;;;;4.43;1.30;;;;;;;-144.44;100.00;63085.34;5033736;28;20040;-35
2024/01/24 17:09:24;;;;;;;1.63;0.85;;;;;;;-144.44;100.00;63085.34;5033834;28;20117;-35
2024/01/24 17:11:49;;;;;;;5.55;1.08;;;;;;;-144.44;100.00;63085.34;5033713;28;20493;-35
2024/01/24 17:14:15;;;;;;;5.55;1.50;;;;;;;-144.44;100.00;63085.34;5034007;28;20040;-35
2024/01/24 17:16:40;;;;;;;3.67;1.10;;;;;;;-144.44;100.00;63085.34;5033799;28;20037;-35
2024/01/24 17:19:06;;;;;;;5.45;2.25;;;;;;;-144.44;100.00;63085.34;5033737;28;20037;-35
2024/01/24 17:21:31;;;;;;;7.95;1.90;;;;;;;-144.44;100.00;63085.34;5033664;28;20528;-35
2024/01/24 17:23:56;;;;;;;3.13;1.35;;;;;;;-144.44;100.00;63085.34;5035417;28;20064;-35
2024/01/24 17:26:22;;;;;;;3.05;0.88;;;;;;;-144.44;100.00;63085.34;5034009;28;20107;-34
2024/01/24 17:28:47;;;;;;;4.93;1.40;;;;;;;-144.44;100.00;63085.34;5032579;28;20048;-34
2024/01/24 17:31:13;;;;;;;4.07;1.25;;;;;;;-144.44;100.00;63085.34;5035089;28;20036;-36
2024/01/24 17:33:38;;;;;;;3.75;1.48;;;;;;;-144.44;100.00;63085.34;5033243;28;20517;-38
2024/01/24 17:36:04;;;;;;;4.38;1.75;;;;;;;-144.44;100.00;63085.34;5033147;28;20037;-33
2024/01/24 17:38:29;;;;;;;3.10;1.13;;;;;;;-144.44;100.00;63085.34;5033875;28;20044;-36
2024/01/24 17:40:55;;;;;;;2.60;1.13;;;;;;;-144.44;100.00;63085.34;5033140;28;20405;-36
2024/01/24 17:43:20;;;;;;;6.95;1.40;;;;;;;-144.44;100.00;63085.34;5036023;28;20538;-34
2024/01/24 17:45:45;;;;;;;4.95;1.52;;;;;;;-144.44;100.00;63085.34;5034333;28;20033;-33
2024/01/24 17:48:11;;;;;;;4.60;1.50;;;;;;;-144.44;100.00;63085.34;5032571;28;20049;-40
2024/01/24 17:50:36;;;;;;;4.57;1.40;;;;;;;-144.44;100.00;63085.34;5033067;28;20048;-36
2024/01/24 17:53:02;;;;;;;7.00;1.77;;;;;;;-144.44;100.00;63085.34;5033253;28;20045;-32
2024/01/24 17:55:28;;;;;;;4.88;1.70;;;;;;;-144.44;100.00;63085.34;5032994;28;20483;-31
2024/01/24 17:57:54;;;;;;;2.88;0.98;;;;;;;-144.44;100.00;63085.34;5032602;28;20037;-34
2024/01/24 18:00:19;;;;;;;4.60;1.90;;;;;;;-144.44;100.00;63085.34;5032710;28;20125;-36
2024/01/24 18:02:45;;;;;;;6.43;2.05;;;;;;;-144.44;100.00;63085.34;5032719;28;20172;-37
2024/01/24 18:05:10;;;;;;;5.47;1.50;;;;;;;-144.44;100.00;63085.34;5032776;28;20037;-32
2024/01/24 18:07:35;;;;;;;7.57;3.35;;;;;;;-144.44;100.00;63085.34;5032421;28;20045;-35
2024/01/24 18:10:02;;;;;;;4.70;2.20;;;;;;;-144.44;100.00;63085.34;5032544;28;20044;-40
2024/01/24 18:12:27;;;;;;;4.25;1.80;;;;;;;-144.44;100.00;63085.34;5032697;28;20033;-36
2024/01/24 18:14:52;;;;;;;7.80;2.17;;;;;;;-144.44;100.00;63085.34;5032462;28;20512;-37
2024/01/24 18:17:18;;;;;;;5.43;2.22;;;;;;;-144.44;100.00;63085.34;5032167;28;20072;-32